createdAt,value
2019-02-26T00:00:50.146Z,2.13
2019-02-26T00:03:57.885Z,2.40
2019-02-26T00:07:04.773Z,2.45
2019-02-26T00:10:11.977Z,2.44
2019-02-26T00:13:24.752Z,1.34
2019-02-26T00:16:35.218Z,1.79
2019-02-26T00:19:39.500Z,1.58
2019-02-26T00:22:46.423Z,1.46
2019-02-26T00:25:53.297Z,1.56
2019-02-26T00:29:01.918Z,1.12
2019-02-26T00:32:10.072Z,1.20
2019-02-26T00:35:19.072Z,0.47
2019-02-26T00:38:26.113Z,1.22
2019-02-26T00:41:33.568Z,1.03
2019-02-26T00:44:41.617Z,0.95
2019-02-26T00:47:48.577Z,1.00
2019-02-26T00:50:56.602Z,0.90
2019-02-26T00:54:05.504Z,1.17
2019-02-26T00:57:13.969Z,0.50
2019-02-26T01:00:21.436Z,0.76
2019-02-26T01:03:28.345Z,0.25
2019-02-26T01:06:35.396Z,0.51
2019-02-26T01:09:42.327Z,0.77
2019-02-26T01:12:49.249Z,0.56
2019-02-26T01:15:56.178Z,0.22
2019-02-26T01:19:03.009Z,0.43
2019-02-26T01:22:11.860Z,0.69
2019-02-26T01:25:22.885Z,0.49
2019-02-26T01:28:31.993Z,0.69
2019-02-26T01:31:38.955Z,0.44
2019-02-26T01:34:49.380Z,0.67
2019-02-26T01:38:00.288Z,0.55
2019-02-26T01:41:11.351Z,0.74
2019-02-26T01:44:18.414Z,0.36
2019-02-26T01:47:26.297Z,0.01
2019-02-26T01:50:35.660Z,0.26
2019-02-26T01:53:46.406Z,0.13
2019-02-26T01:56:53.402Z,0.22
2019-02-26T02:00:00.920Z,0.38
2019-02-26T02:03:08.004Z,0.50
2019-02-26T02:06:17.703Z,-0.09
2019-02-26T02:09:25.079Z,-0.06
2019-02-26T02:12:34.268Z,0.45
2019-02-26T02:15:42.238Z,-0.13
2019-02-26T02:18:51.373Z,0.41
2019-02-26T02:21:58.536Z,-0.03
2019-02-26T02:25:05.681Z,-0.19
2019-02-26T02:28:19.355Z,0.33
2019-02-26T02:31:29.533Z,0.14
2019-02-26T02:34:36.674Z,0.20
2019-02-26T02:37:42.678Z,-0.11
2019-02-26T02:40:52.550Z,0.04
2019-02-26T02:43:59.277Z,0.04
2019-02-26T02:47:08.807Z,0.28
2019-02-26T02:50:18.207Z,0.37
2019-02-26T02:53:24.520Z,-0.40
2019-02-26T02:56:33.524Z,-0.49
2019-02-26T02:59:42.249Z,-0.18
2019-02-26T03:02:52.289Z,-0.09
2019-02-26T03:05:58.354Z,0.16
2019-02-26T03:09:17.763Z,0.01
2019-02-26T03:12:24.801Z,0.13
2019-02-26T03:15:33.762Z,-0.30
2019-02-26T03:18:40.334Z,-0.45
2019-02-26T03:21:49.510Z,-0.19
2019-02-26T03:24:57.495Z,-0.80
2019-02-26T03:28:04.725Z,-0.33
2019-02-26T03:31:11.781Z,-0.81
2019-02-26T03:34:25.414Z,-0.89
2019-02-26T03:37:31.411Z,-0.53
2019-02-26T03:40:38.841Z,-0.64
2019-02-26T03:43:45.849Z,-0.37
2019-02-26T03:46:52.707Z,-0.42
2019-02-26T03:49:59.519Z,-0.37
2019-02-26T03:53:09.053Z,-0.60
2019-02-26T03:56:17.551Z,-0.31
2019-02-26T03:59:24.179Z,-0.79
2019-02-26T04:02:31.436Z,-0.74
2019-02-26T04:05:38.312Z,-0.94
2019-02-26T04:08:48.066Z,-0.62
2019-02-26T04:11:55.422Z,-0.25
2019-02-26T04:15:02.356Z,-0.49
2019-02-26T04:18:09.317Z,-0.66
2019-02-26T04:21:18.413Z,-0.65
2019-02-26T04:24:26.007Z,-0.57
2019-02-26T04:28:27.370Z,-0.76
2019-02-26T04:32:49.490Z,-0.75
2019-02-26T04:36:28.741Z,-0.94
2019-02-26T04:40:17.452Z,-0.66
2019-02-26T04:44:29.241Z,-0.64
2019-02-26T04:47:36.376Z,-0.25
2019-02-26T04:50:44.804Z,-0.56
2019-02-26T04:53:53.694Z,-0.79
2019-02-26T04:57:00.467Z,-0.71
2019-02-26T05:00:10.400Z,-1.20
2019-02-26T05:03:18.140Z,-0.94
2019-02-26T05:06:25.578Z,-0.72
2019-02-26T05:09:35.102Z,-0.60
2019-02-26T05:12:41.188Z,-0.47
2019-02-26T05:15:48.110Z,-1.04
2019-02-26T05:18:58.508Z,-0.92
2019-02-26T05:22:07.052Z,-0.58
2019-02-26T05:25:17.647Z,-0.37
2019-02-26T05:28:23.950Z,-0.53
2019-02-26T05:31:33.189Z,-0.45
2019-02-26T05:34:39.837Z,-0.79
2019-02-26T05:37:48.016Z,-0.37
2019-02-26T05:40:55.791Z,-0.63
2019-02-26T05:44:06.650Z,-0.49
2019-02-26T05:47:13.104Z,-0.65
2019-02-26T05:50:20.246Z,-0.85
2019-02-26T05:53:27.090Z,-0.80
2019-02-26T05:56:34.638Z,-0.59
2019-02-26T05:59:42.419Z,-0.69
2019-02-26T06:02:51.029Z,-1.46
2019-02-26T06:06:00.485Z,-0.90
2019-02-26T06:09:08.201Z,-1.07
2019-02-26T06:12:15.188Z,-0.90
2019-02-26T06:15:22.975Z,-1.34
2019-02-26T06:18:30.863Z,-1.05
2019-02-26T06:21:41.777Z,-1.01
2019-02-26T06:24:46.251Z,-1.15
2019-02-26T06:27:53.018Z,-1.34
2019-02-26T06:31:00.057Z,-0.82
2019-02-26T06:34:08.822Z,-0.79
2019-02-26T06:37:25.020Z,-1.53
2019-02-26T06:40:34.514Z,-1.25
2019-02-26T06:43:42.763Z,-1.08
2019-02-26T06:46:49.083Z,-0.76
2019-02-26T06:49:55.938Z,-1.32
2019-02-26T06:53:04.607Z,-1.24
2019-02-26T06:56:11.338Z,-1.13
2019-02-26T06:59:19.622Z,-0.80
2019-02-26T07:02:28.950Z,-0.80
2019-02-26T07:05:46.480Z,-1.21
2019-02-26T07:08:53.590Z,-0.87
2019-02-26T07:12:00.603Z,-1.09
2019-02-26T07:15:12.150Z,-1.15
2019-02-26T07:18:20.169Z,-0.67
2019-02-26T07:21:27.060Z,-0.45
2019-02-26T07:24:33.870Z,-0.72
2019-02-26T07:27:40.811Z,-0.57
2019-02-26T07:30:47.696Z,-0.48
2019-02-26T07:33:56.399Z,-0.17
2019-02-26T07:37:04.255Z,-0.21
2019-02-26T07:40:15.893Z,-0.25
2019-02-26T07:43:23.793Z,-0.06
2019-02-26T07:46:30.652Z,-0.03
2019-02-26T07:49:37.464Z,0.07
2019-02-26T07:52:44.359Z,0.26
2019-02-26T07:55:51.313Z,0.26
2019-02-26T07:59:01.276Z,0.47
2019-02-26T08:02:08.634Z,0.61
2019-02-26T08:05:17.027Z,0.99
2019-02-26T08:08:24.321Z,1.55
2019-02-26T08:11:31.515Z,1.82
2019-02-26T08:14:40.208Z,2.15
2019-02-26T08:17:50.201Z,2.40
2019-02-26T08:20:57.922Z,2.54
2019-02-26T08:24:04.192Z,2.84
2019-02-26T08:27:13.397Z,2.83
2019-02-26T08:30:23.322Z,2.97
2019-02-26T08:33:28.807Z,3.18
2019-02-26T08:36:35.823Z,3.56
2019-02-26T08:39:42.684Z,3.54
2019-02-26T08:42:49.509Z,3.84
2019-02-26T08:45:56.373Z,3.94
2019-02-26T08:49:08.464Z,4.16
2019-02-26T08:52:12.597Z,4.61
2019-02-26T08:55:24.440Z,4.48
2019-02-26T08:58:30.323Z,4.54
2019-02-26T09:01:37.136Z,4.81
2019-02-26T09:04:45.083Z,5.00
2019-02-26T09:07:52.677Z,5.32
2019-02-26T09:11:00.948Z,5.33
2019-02-26T09:14:09.782Z,5.51
2019-02-26T09:17:20.945Z,5.60
2019-02-26T09:20:25.988Z,5.82
2019-02-26T09:23:32.931Z,6.00
2019-02-26T09:26:39.885Z,6.05
2019-02-26T09:29:50.936Z,6.27
2019-02-26T09:32:58.439Z,6.44
2019-02-26T09:36:05.005Z,7.16
2019-02-26T09:39:15.364Z,6.79
2019-02-26T09:42:23.368Z,6.89
2019-02-26T09:45:31.553Z,7.47
2019-02-26T09:48:40.494Z,7.34
2019-02-26T09:51:46.944Z,8.41
2019-02-26T09:54:55.204Z,8.14
2019-02-26T09:58:02.637Z,8.60
2019-02-26T10:01:11.023Z,8.92
2019-02-26T10:04:22.085Z,8.74
2019-02-26T10:07:31.228Z,8.91
2019-02-26T10:10:39.826Z,8.91
2019-02-26T10:13:48.910Z,8.93
2019-02-26T10:16:57.004Z,9.26
2019-02-26T10:20:08.603Z,9.71
2019-02-26T10:23:21.787Z,9.59
2019-02-26T10:26:30.759Z,9.64
2019-02-26T10:29:42.801Z,9.74
2019-02-26T10:32:49.417Z,9.87
2019-02-26T10:35:56.475Z,10.19
2019-02-26T10:39:04.224Z,10.09
2019-02-26T10:42:12.716Z,9.70
2019-02-26T10:45:22.588Z,9.97
2019-02-26T10:48:29.610Z,10.01
2019-02-26T10:51:36.657Z,10.28
2019-02-26T10:54:44.726Z,10.65
2019-02-26T10:57:52.514Z,10.51
2019-02-26T11:01:05.156Z,10.56
2019-02-26T11:04:10.634Z,10.60
2019-02-26T11:07:20.730Z,10.61
2019-02-26T11:10:27.629Z,10.60
2019-02-26T11:13:34.530Z,10.82
2019-02-26T11:16:41.344Z,10.56
2019-02-26T11:19:48.655Z,10.64
2019-02-26T11:22:55.534Z,10.61
2019-02-26T11:26:04.066Z,10.71
2019-02-26T11:29:10.999Z,10.69
2019-02-26T11:32:18.210Z,10.79
2019-02-26T11:35:27.124Z,10.75
2019-02-26T11:38:35.314Z,10.86
2019-02-26T11:41:42.765Z,11.15
2019-02-26T11:44:49.583Z,11.02
2019-02-26T11:47:57.983Z,11.01
2019-02-26T11:51:05.210Z,11.10
2019-02-26T11:54:14.383Z,11.00
2019-02-26T11:57:21.066Z,11.23
2019-02-26T12:00:39.927Z,11.37
2019-02-26T12:03:46.391Z,11.29
2019-02-26T12:06:53.252Z,11.33
2019-02-26T12:10:04.654Z,11.10
2019-02-26T12:13:10.490Z,11.08
2019-02-26T12:16:17.917Z,11.11
2019-02-26T12:19:25.643Z,11.33
2019-02-26T12:22:34.528Z,11.44
2019-02-26T12:25:41.417Z,11.42
2019-02-26T12:28:48.220Z,11.46
2019-02-26T12:31:55.638Z,11.45
2019-02-26T12:35:05.773Z,11.46
2019-02-26T12:38:18.262Z,11.50
2019-02-26T12:41:21.072Z,11.62
2019-02-26T12:44:28.970Z,11.51
2019-02-26T12:47:36.556Z,11.55
2019-02-26T12:50:43.454Z,11.54
2019-02-26T12:53:50.469Z,11.57
2019-02-26T12:56:57.770Z,11.70
2019-02-26T13:00:10.795Z,11.74
2019-02-26T13:03:19.863Z,11.71
2019-02-26T13:06:27.309Z,11.68
2019-02-26T13:09:34.379Z,11.60
2019-02-26T13:12:41.359Z,11.87
2019-02-26T13:15:49.861Z,11.73
2019-02-26T13:19:00.884Z,11.73
2019-02-26T13:22:08.741Z,11.72
2019-02-26T13:25:17.801Z,11.67
2019-02-26T13:28:29.557Z,11.64
2019-02-26T13:31:41.709Z,11.59
2019-02-26T13:34:43.596Z,11.43
2019-02-26T13:37:51.346Z,11.52
2019-02-26T13:41:19.944Z,11.46
2019-02-26T13:44:06.929Z,11.58
2019-02-26T13:47:16.854Z,11.59
2019-02-26T13:50:28.361Z,11.61
2019-02-26T13:53:35.283Z,11.60
2019-02-26T13:56:42.555Z,11.63
2019-02-26T13:59:49.373Z,11.71
2019-02-26T14:02:56.203Z,12.01
2019-02-26T14:06:03.170Z,12.26
2019-02-26T14:09:10.086Z,12.34
2019-02-26T14:12:17.653Z,12.47
2019-02-26T14:15:25.321Z,12.25
2019-02-26T14:18:32.574Z,12.20
2019-02-26T14:21:41.555Z,12.12
2019-02-26T14:24:48.179Z,11.89
2019-02-26T14:27:56.619Z,12.00
2019-02-26T14:31:03.484Z,12.03
2019-02-26T14:34:11.059Z,12.14
2019-02-26T14:37:21.191Z,12.04
2019-02-26T14:40:28.104Z,12.22
2019-02-26T14:43:34.885Z,12.34
2019-02-26T14:46:41.799Z,12.40
2019-02-26T14:49:48.692Z,12.21
2019-02-26T14:52:55.795Z,12.31
2019-02-26T14:56:03.012Z,12.29
2019-02-26T14:59:09.822Z,12.28
2019-02-26T15:02:17.721Z,12.11
2019-02-26T15:05:25.331Z,11.90
2019-02-26T15:08:32.155Z,11.98
2019-02-26T15:11:39.171Z,11.89
2019-02-26T15:14:48.749Z,11.91
2019-02-26T15:17:54.679Z,11.84
2019-02-26T15:21:01.638Z,11.87
2019-02-26T15:24:08.529Z,11.77
2019-02-26T15:27:18.432Z,11.75
2019-02-26T15:30:26.148Z,11.73
2019-02-26T15:33:33.021Z,11.84
2019-02-26T15:36:41.099Z,11.79
2019-02-26T15:39:47.985Z,11.67
2019-02-26T15:42:56.352Z,11.70
2019-02-26T15:46:03.355Z,11.61
2019-02-26T15:49:12.161Z,11.64
2019-02-26T15:52:22.382Z,11.60
2019-02-26T15:55:29.447Z,11.51
2019-02-26T15:58:36.641Z,11.53
2019-02-26T16:01:43.478Z,11.58
2019-02-26T16:04:50.285Z,11.56
2019-02-26T16:07:57.216Z,11.46
2019-02-26T16:11:04.032Z,11.51
2019-02-26T16:14:11.173Z,11.41
2019-02-26T16:17:18.322Z,11.27
2019-02-26T16:20:25.167Z,11.29
2019-02-26T16:23:32.715Z,11.06
2019-02-26T16:26:40.976Z,11.43
2019-02-26T16:29:49.758Z,11.52
2019-02-26T16:32:57.923Z,11.31
2019-02-26T16:36:04.778Z,11.25
2019-02-26T16:39:12.291Z,11.33
2019-02-26T16:42:19.746Z,11.23
2019-02-26T16:45:26.717Z,11.07
2019-02-26T16:48:33.773Z,10.90
2019-02-26T16:51:40.753Z,10.81
2019-02-26T16:54:47.597Z,10.85
2019-02-26T16:57:56.931Z,10.86
2019-02-26T17:01:05.881Z,10.75
2019-02-26T17:04:13.072Z,10.52
2019-02-26T17:07:21.317Z,10.47
2019-02-26T17:10:30.378Z,10.41
2019-02-26T17:13:37.862Z,10.33
2019-02-26T17:16:45.577Z,10.18
2019-02-26T17:19:54.240Z,10.10
2019-02-26T17:23:02.739Z,10.03
2019-02-26T17:26:09.761Z,9.85
2019-02-26T17:29:16.874Z,9.87
2019-02-26T17:32:24.453Z,9.83
2019-02-26T17:35:31.635Z,9.65
2019-02-26T17:38:38.432Z,9.64
2019-02-26T17:41:45.338Z,9.59
2019-02-26T17:44:52.233Z,9.43
2019-02-26T17:47:59.113Z,9.46
2019-02-26T17:51:06.003Z,9.42
2019-02-26T17:54:12.872Z,9.40
2019-02-26T17:57:19.711Z,9.38
2019-02-26T18:00:27.259Z,9.23
2019-02-26T18:03:35.243Z,9.16
2019-02-26T18:06:42.258Z,9.07
2019-02-26T18:09:50.643Z,9.03
2019-02-26T18:12:57.793Z,8.68
2019-02-26T18:16:09.062Z,8.58
2019-02-26T18:19:13.470Z,8.43
2019-02-26T18:22:21.761Z,8.04
2019-02-26T18:25:29.214Z,7.96
2019-02-26T18:28:36.868Z,7.95
2019-02-26T18:31:43.847Z,7.82
2019-02-26T18:34:50.755Z,6.69
2019-02-26T18:37:58.152Z,7.34
2019-02-26T18:41:05.114Z,7.50
2019-02-26T18:44:12.342Z,7.16
2019-02-26T18:47:20.581Z,7.12
2019-02-26T18:50:28.634Z,5.71
2019-02-26T18:53:36.215Z,6.43
2019-02-26T18:56:43.175Z,6.78
2019-02-26T18:59:53.624Z,6.74
2019-02-26T19:03:02.075Z,6.36
2019-02-26T19:06:08.928Z,6.66
2019-02-26T19:09:18.627Z,6.80
2019-02-26T19:12:30.238Z,6.46
2019-02-26T19:15:37.225Z,6.44
2019-02-26T19:18:44.026Z,6.20
2019-02-26T19:21:54.072Z,6.35
2019-02-26T19:25:02.620Z,5.70
2019-02-26T19:28:11.871Z,5.97
2019-02-26T19:31:23.557Z,6.11
2019-02-26T19:34:33.327Z,5.92
2019-02-26T19:37:42.930Z,5.91
2019-02-26T19:40:50.901Z,5.74
2019-02-26T19:44:00.035Z,5.58
2019-02-26T19:47:06.502Z,5.71
2019-02-26T19:50:17.001Z,5.74
2019-02-26T19:53:24.810Z,5.59
2019-02-26T19:56:31.731Z,5.44
2019-02-26T19:59:38.688Z,5.04
2019-02-26T20:02:45.506Z,5.29
2019-02-26T20:05:52.413Z,5.13
2019-02-26T20:08:59.191Z,4.58
2019-02-26T20:12:06.082Z,5.05
2019-02-26T20:15:14.172Z,5.02
2019-02-26T20:18:23.713Z,4.24
2019-02-26T20:21:29.544Z,4.45
2019-02-26T20:24:36.391Z,4.90
2019-02-26T20:27:43.506Z,4.62
2019-02-26T20:30:50.460Z,3.94
2019-02-26T20:33:58.469Z,4.42
2019-02-26T20:37:05.375Z,4.83
2019-02-26T20:40:16.397Z,4.50
2019-02-26T20:43:25.332Z,4.24
2019-02-26T20:46:35.459Z,4.58
2019-02-26T20:49:43.641Z,4.84
2019-02-26T20:52:53.314Z,4.76
2019-02-26T20:56:01.195Z,4.50
2019-02-26T20:59:11.026Z,4.81
2019-02-26T21:02:19.134Z,5.12
2019-02-26T21:05:27.103Z,5.27
2019-02-26T21:08:35.749Z,5.14
2019-02-26T21:11:43.552Z,4.93
2019-02-26T21:14:51.210Z,4.57
2019-02-26T21:17:59.060Z,4.32
2019-02-26T21:21:07.077Z,4.71
2019-02-26T21:24:15.103Z,4.82
2019-02-26T21:27:23.693Z,4.68
2019-02-26T21:30:31.985Z,4.63
2019-02-26T21:33:39.865Z,4.75
2019-02-26T21:36:48.095Z,4.71
2019-02-26T21:39:56.284Z,4.74
2019-02-26T21:43:03.686Z,4.80
2019-02-26T21:46:13.043Z,4.85
2019-02-26T21:49:21.873Z,4.83
2019-02-26T21:52:30.108Z,4.68
2019-02-26T21:55:44.363Z,4.70
2019-02-26T21:58:48.639Z,4.48
2019-02-26T22:01:58.111Z,4.65
2019-02-26T22:05:08.101Z,4.59
2019-02-26T22:08:16.362Z,4.62
2019-02-26T22:11:24.136Z,4.65
2019-02-26T22:14:34.037Z,4.61
2019-02-26T22:17:43.753Z,4.59
2019-02-26T22:20:53.516Z,4.54
2019-02-26T22:24:01.521Z,4.42
2019-02-26T22:27:09.456Z,4.36
2019-02-26T22:30:21.388Z,4.34
2019-02-26T22:33:28.986Z,4.41
2019-02-26T22:36:37.545Z,4.24
2019-02-26T22:39:44.647Z,4.20
2019-02-26T22:42:51.559Z,4.26
2019-02-26T22:46:00.766Z,4.28
2019-02-26T22:49:07.937Z,3.96
2019-02-26T22:52:14.869Z,4.00
2019-02-26T22:55:21.769Z,4.03
2019-02-26T22:58:28.840Z,3.99
2019-02-26T23:01:46.917Z,4.03
2019-02-26T23:04:55.581Z,3.89
2019-02-26T23:08:02.812Z,4.12
2019-02-26T23:11:12.809Z,4.08
2019-02-26T23:14:20.888Z,3.95
2019-02-26T23:17:28.959Z,3.98
2019-02-26T23:20:36.179Z,3.91
2019-02-26T23:23:43.057Z,3.65
2019-02-26T23:26:50.060Z,3.79
2019-02-26T23:29:58.846Z,3.72
2019-02-26T23:33:07.921Z,3.44
2019-02-26T23:36:17.439Z,3.52
2019-02-26T23:39:24.594Z,3.53
2019-02-26T23:42:33.521Z,3.61
2019-02-26T23:45:40.399Z,3.48
2019-02-26T23:48:47.220Z,3.43
2019-02-26T23:51:55.487Z,3.12
2019-02-26T23:55:02.439Z,3.18
2019-02-26T23:58:11.349Z,3.13
